Time;durP1;ratioP1;P1;durP2;ratioP2;P2;SDS_P1;SDS_P2;PMS_P1;PMS_P2;Temp;Humidity;BMP_temperature;BMP_pressure;BME280_temperature;BME280_humidity;BME280_pressure;Samples;Min_cycle;Max_cycle;Signal;HPM_P1;HPM_P2
2022/12/06 17:18:06;;;;;;;;;;;;;;;;;;;;;
2022/12/06 17:21:40;;;;;;;18.02;13.93;;;;;;;8.72;62.72;99583.44;2417255;81;25710;-87
2022/12/06 17:25:22;;;;;;;16.50;12.90;;;;;;;8.71;62.69;99585.17;2395165;80;25909;-90
2022/12/06 17:28:59;;;;;;;16.67;12.80;;;;;;;8.73;62.62;99578.25;2393891;82;25763;-93
2022/12/06 17:32:53;;;;;;;18.60;12.85;;;;;;;8.74;62.58;99576.53;2392245;82;25732;-89
2022/12/06 17:36:19;;;;;;;14.23;12.73;;;;;;;8.77;62.52;99577.02;2352840;83;25322;-84
2022/12/06 17:40:05;;;;;;;16.35;14.20;;;;;;;8.77;62.48;99575.72;2391358;82;25730;-87
2022/12/06 17:43:45;;;;;;;14.75;12.40;;;;;;;8.80;62.43;99581.84;2390150;82;25971;-88
2022/12/06 17:47:34;;;;;;;15.63;13.60;;;;;;;8.81;62.37;99569.32;2305360;85;25761;-83
2022/12/06 17:51:00;;;;;;;13.20;11.53;;;;;;;8.82;62.31;99567.16;2306965;85;25724;-81
2022/12/06 17:54:43;;;;;;;14.33;12.73;;;;;;;8.84;62.26;99564.58;2312936;84;25686;-84
2022/12/06 17:58:12;;;;;;;16.25;11.57;;;;;;;8.84;62.22;99568.08;2365231;83;25915;-83
2022/12/06 18:10:24;;;;;;;;;;;;;;;;;;;;;
2022/12/06 18:18:21;;;;;;;12.95;11.53;;;;;;;8.89;61.92;99561.65;1917205;103;25770;-85
2022/12/06 18:33:55;;;;;;;11.05;9.90;;;;;;;8.91;61.72;99543.94;1839687;106;26013;-83
2022/12/06 18:43:40;;;;;;;11.75;9.73;;;;;;;8.92;61.61;99540.48;1779389;107;25992;-88
2022/12/06 18:47:30;;;;;;;12.13;10.88;;;;;;;8.92;61.58;99537.01;1808212;108;25896;-85
2022/12/06 19:03:51;;;;;;;12.00;10.10;;;;;;;8.93;61.48;99526.63;1806230;107;26173;-86
2022/12/06 19:07:25;;;;;;;14.98;11.93;;;;;;;8.92;61.42;99524.88;1809805;108;26062;-83
2022/12/06 19:11:03;;;;;;;11.95;10.70;;;;;;;8.92;61.40;99518.38;1857864;104;25853;-87
2022/12/06 19:14:43;;;;;;;;;;;;;;;;;;;;;
2022/12/06 19:18:05;;;;;;;12.05;10.28;;;;;;;8.90;61.32;99510.97;1950350;99;25874;-84
2022/12/06 19:21:50;;;;;;;;;;;;;;;;;;;;;
2022/12/06 19:25:17;;;;;;;12.70;10.50;;;;;;;8.93;61.29;99512.75;1997316;97;25679;-84
2022/12/06 19:28:55;;;;;;;;;;;;;;;;;;;;;
2022/12/06 19:32:26;;;;;;;12.50;10.13;;;;;;;8.94;61.23;99505.40;2043821;95;26139;-86
2022/12/06 19:47:24;;;;;;;12.37;11.05;;;;;;;9.04;61.94;99505.98;1805397;108;25883;-85
2022/12/06 19:54:39;;;;;;;13.90;11.80;;;;;;;9.03;61.87;99498.19;1780585;108;25932;-83
2022/12/06 19:59:04;;;;;;;;;;;;;;;;;;;;;
2022/12/06 20:12:47;;;;;;;13.58;11.35;;;;;;;8.98;61.65;99495.09;1749700;104;26103;-89
2022/12/06 20:16:51;;;;;;;12.00;10.80;;;;;;;8.99;61.60;99492.94;1778152;110;25982;-88
2022/12/06 20:24:02;;;;;;;18.48;12.68;;;;;;;8.98;61.52;99497.69;1817907;104;25931;-86
2022/12/06 20:32:07;;;;;;;;;;;;;;;;;;;;;
2022/12/06 20:36:31;;;;;;;16.15;12.35;;;;;;;8.99;61.40;99490.77;1854074;104;26028;-87
2022/12/06 20:40:16;;;;;;;14.93;12.85;;;;;;;8.97;61.35;99481.63;1888401;103;26643;-87
2022/12/06 20:43:49;;;;;;;13.58;12.15;;;;;;;8.97;61.30;99474.25;1900655;100;26197;-87
2022/12/06 20:47:19;;;;;;;15.25;12.05;;;;;;;8.96;61.27;99471.22;1948197;101;25810;-88
2022/12/06 20:51:18;;;;;;;14.03;12.25;;;;;;;8.95;61.22;99462.55;1872497;103;25850;-90
2022/12/06 20:55:01;;;;;;;14.10;12.28;;;;;;;8.94;61.19;99456.91;1889924;99;25854;-90
2022/12/06 21:26:48;;;;;;;13.60;11.90;;;;;;;8.84;61.00;99448.53;1817790;106;25827;-89
2022/12/06 21:30:29;;;;;;;17.55;13.32;;;;;;;8.84;60.96;99451.52;1845376;104;25914;-91
2022/12/06 21:34:08;;;;;;;18.02;14.38;;;;;;;8.83;60.92;99445.89;1792845;108;25927;-93
2022/12/06 21:38:30;;;;;;;17.27;12.43;;;;;;;8.81;60.90;99447.17;1765314;110;25834;-92
2022/12/06 21:47:16;;;;;;;13.30;11.90;;;;;;;8.80;60.88;99449.30;1718130;113;25740;-84
2022/12/06 21:50:58;;;;;;;;;;;;;;;;;;;;;
2022/12/06 21:54:55;;;;;;;;;;;;;;;;;;;;;
2022/12/06 21:58:47;;;;;;;;;;;;;;;;;;;;;
2022/12/06 22:02:25;;;;;;;;;;;;;;;;;;;;;
2022/12/06 22:06:36;;;;;;;15.30;13.10;;;;;;;8.78;60.78;99443.22;1709181;115;25434;-91
2022/12/06 22:10:36;;;;;;;14.68;11.90;;;;;;;8.78;60.75;99444.95;1709130;114;25814;-88
2022/12/06 22:14:11;;;;;;;13.65;11.10;;;;;;;8.77;60.72;99442.75;1741292;113;25749;-88
2022/12/06 22:22:36;;;;;;;13.83;11.68;;;;;;;8.75;60.67;99434.08;1728341;112;25516;-88
2022/12/06 22:26:43;;;;;;;11.80;10.28;;;;;;;8.74;60.67;99427.11;1719177;114;26017;-89
2022/12/06 22:30:24;;;;;;;13.08;10.90;;;;;;;8.72;60.65;99416.71;1723910;113;26467;-88
2022/12/06 22:34:39;;;;;;;12.28;11.08;;;;;;;8.70;60.62;99418.83;1709905;111;25912;-91
2022/12/06 22:38:27;;;;;;;12.47;10.05;;;;;;;8.72;60.63;99423.64;1707833;113;25928;-88
2022/12/06 22:42:01;;;;;;;11.88;10.68;;;;;;;8.71;60.58;99411.50;1731804;111;25887;-85
2022/12/06 22:45:24;;;;;;;14.25;11.30;;;;;;;8.70;60.56;99411.90;1710542;114;25862;-84
2022/12/06 22:49:08;;;;;;;;;;;;;;;8.70;60.54;99414.92;1774497;110;25898;-94
2022/12/06 22:53:01;;;;;;;10.88;9.75;;;;;;;8.69;60.53;99418.39;1810837;106;25833;-93
2022/12/06 22:56:27;;;;;;;;;;;;;;;8.67;60.52;99417.48;1902809;100;25820;-85
2022/12/06 23:03:46;;;;;;;;;;;;;;;;;;;;;
2022/12/06 23:07:23;;;;;;;10.55;9.53;;;;;;;8.66;60.48;99397.55;1851498;105;25898;-93
2022/12/06 23:10:52;;;;;;;;;;;;;;;;;;;;;
2022/12/06 23:21:45;;;;;;;10.57;9.23;;;;;;;8.65;60.41;99381.52;1887639;103;25440;-94
2022/12/06 23:25:09;;;;;;;10.18;9.10;;;;;;;8.65;60.37;99382.39;1885895;103;25798;-92
2022/12/06 23:28:35;;;;;;;11.18;9.93;;;;;;;8.65;60.37;99382.39;1886560;102;25916;-91
2022/12/06 23:32:04;;;;;;;10.18;9.08;;;;;;;8.65;60.34;99379.80;1837656;106;25806;-90
2022/12/06 23:35:35;;;;;;;11.33;10.13;;;;;;;8.65;60.32;99373.30;1837780;106;25958;-92
2022/12/06 23:39:49;;;;;;;;;;;;;;;;;;;;;
2022/12/06 23:43:37;;;;;;;;;;;;;;;;;;;;;
2022/12/06 23:47:11;;;;;;;10.35;9.18;;;;;;;8.64;60.22;99357.67;1838448;106;25953;-93
2022/12/06 23:51:08;;;;;;;9.73;8.78;;;;;;;8.64;60.22;99357.67;1810781;107;25889;-91
2022/12/06 23:55:01;;;;;;;10.45;9.55;;;;;;;8.64;60.26;99362.86;1786448;107;25882;-92
2022/12/06 23:58:39;;;;;;;9.28;8.38;;;;;;;8.63;60.25;99359.40;1810201;103;25845;-91
